Navig8 Honor — V7SZ5 — position and weather

sailwx.info

Track history (hours):
 
Tides and Currents Weather Stations Pressure Air Temp Water Temp Dewpoint Dewpoint Depression Visibility Wind Speed Wind Dir Waves Ship Positions

Navig8 Honor

Last reported at 2017-Sep-12 07:34 UTC. Time now 2017-Dec-13 05:30 UTC.
Position N 30°47' E 032°19'.
Warning: this ship's position is months out of date.

Length 228 m; draft 12.2 m.

Type: Ship. MMSI: 538003756.

Date/timePositionNaut miles runAvg speedWind from/ knotsBaromVisibWave heightAir tempDewpointWater temp
2017-Sep-12 07:34N 30°47' E 032°19'2 8.6
2017-Sep-12 07:21N 30°49' E 032°19'7 8.3
2017-Sep-12 06:31N 30°56' E 032°19'0 8.1
2017-Sep-12 06:30N 30°56' E 032°19'5 8.5
2017-Sep-12 05:57N 31°01' E 032°19'5 9.5
2017-Sep-12 05:23N 31°06' E 032°19'6 9.7
2017-Sep-12 04:46N 31°12' E 032°20'2 6.0
2017-Sep-12 04:29N 31°14' E 032°21'6 9.5
2017-Sep-12 03:50N 31°20' E 032°23'2 5.6
2017-Sep-12 03:26N 31°22' E 032°23'2 4.5
2017-Sep-12 03:00N 31°24' E 032°22'2 2.0
2017-Sep-12 02:04N 31°23' E 032°20'0 0.4
2017-Sep-12 01:57N 31°22' E 032°20'0 0.0
2017-Sep-12 01:26N 31°22' E 032°20'0 0.1
2017-Sep-12 00:56N 31°22' E 032°20'0 0.0
2017-Sep-12 00:29N 31°22' E 032°20'0 0.0
2017-Sep-11 23:59N 31°22' E 032°20'0 0.0
2017-Sep-11 20:35N 31°22' E 032°20'0 0.0
2017-Sep-11 20:20N 31°22' E 032°20'0 0.0
2017-Sep-11 19:02N 31°22' E 032°20'0 0.0
2017-Sep-11 18:59N 31°22' E 032°20'0 0.0
2017-Sep-11 18:29N 31°22' E 032°20'0 0.0
2017-Sep-11 17:53N 31°22' E 032°20'0 0.0
2017-Sep-11 17:26N 31°22' E 032°20'0 0.0
2017-Sep-11 16:53N 31°22' E 032°20'0 0.0
2017-Sep-11 16:08N 31°22' E 032°20'0 0.0
2017-Sep-11 15:59N 31°22' E 032°20'0 0.0
2017-Sep-11 15:29N 31°22' E 032°20'0 0.0
2017-Sep-11 14:59N 31°22' E 032°20'0 0.0
2017-Sep-11 14:14N 31°22' E 032°20'0 0.0
2017-Sep-11 13:59N 31°22' E 032°20'0 0.0
2017-Sep-11 13:26N 31°22' E 032°20'0 0.0
2017-Sep-11 12:10N 31°22' E 032°20'0 0.0
2017-Sep-11 11:53N 31°22' E 032°20'0 0.0
2017-Sep-11 11:23N 31°22' E 032°20'0 0.0
2017-Sep-11 11:00N 31°22' E 032°20'0 0.0
2017-Sep-11 10:24N 31°22' E 032°20'0 0.0
2017-Sep-11 10:00N 31°22' E 032°20'0 0.1
2017-Sep-11 09:30N 31°22' E 032°20'0 0.2
2017-Sep-11 08:49N 31°23' E 032°20'0 0.1
2017-Sep-11 08:25N 31°23' E 032°20'0 0.7
2017-Sep-11 08:00N 31°23' E 032°20'1 1.3
2017-Sep-11 07:23N 31°24' E 032°20'5 6.8
2017-Sep-11 06:40N 31°28' E 032°17'1 7.6
2017-Sep-11 06:30N 31°29' E 032°16'611.7
2017-Sep-11 06:00N 31°33' E 032°11'612.9
2017-Sep-11 05:30N 31°38' E 032°06'812.8
2017-Sep-11 04:54N 31°43' E 031°59'512.6
2017-Sep-11 04:30N 31°46' E 031°54'613.0
2017-Sep-11 04:00N 31°48' E 031°47'713.1
2017-Sep-11 03:30N 31°51' E 031°40'1112.9
2017-Sep-11 02:40N 31°54' E 031°28'3712.9
2017-Sep-10 23:47N 32°09' E 030°48'413.0
2017-Sep-10 23:30N 32°10' E 030°44'1213.0
2017-Sep-10 22:36N 32°14' E 030°31'113.0
2017-Sep-10 22:30N 32°14' E 030°29'1813.3
2017-Sep-10 21:11N 32°20' E 030°10'4313.0
2017-Sep-10 17:53N 32°33' E 029°21'612.7
2017-Sep-10 17:26N 32°34' E 029°14'6012.9
2017-Sep-10 12:48N 32°52' E 028°07'413.0
2017-Sep-10 12:30N 32°53' E 028°02'1713.1
2017-Sep-10 11:13N 32°58' E 027°43'66413.0
2017-Sep-08 08:11N 36°17' E 014°54'213.2
2017-Sep-08 08:00N 36°18' E 014°51'713.1
2017-Sep-08 07:30N 36°20' E 014°43'612.9
2017-Sep-08 07:00N 36°22' E 014°36'613.0
2017-Sep-08 06:31N 36°24' E 014°28'713.0
2017-Sep-08 06:00N 36°26' E 014°20'613.0
2017-Sep-08 05:30N 36°27' E 014°13'612.9
2017-Sep-08 05:00N 36°29' E 014°05'1212.9
2017-Sep-08 04:05N 36°33' E 013°51'113.1
2017-Sep-08 04:00N 36°33' E 013°50'1913.1
2017-Sep-08 02:34N 36°39' E 013°28'113.5
2017-Sep-08 02:30N 36°39' E 013°26'713.1
2017-Sep-08 01:58N 36°41' E 013°18'42512.8
2017-Sep-06 16:45N 37°18' E 004°28'6212.9
2017-Sep-06 11:59N 37°13' E 003°11'613.2
2017-Sep-06 11:30N 37°12' E 003°03'713.2
2017-Sep-06 11:00N 37°11' E 002°55'713.3
2017-Sep-06 10:30N 37°09' E 002°46'813.3
2017-Sep-06 09:53N 37°07' E 002°37'713.3
2017-Sep-06 09:22N 37°06' E 002°28'513.2
2017-Sep-06 09:00N 37°05' E 002°22'613.0
2017-Sep-06 08:30N 37°03' E 002°15'612.9
2017-Sep-06 08:00N 37°02' E 002°07'612.8
2017-Sep-06 07:30N 37°00' E 001°59'712.8
2017-Sep-06 06:56N 36°58' E 001°50'612.5
2017-Sep-06 06:27N 36°57' E 001°43'612.4
2017-Sep-06 06:00N 36°56' E 001°36'1612.5
2017-Sep-06 04:44N 36°52' E 001°17'412.7
2017-Sep-06 04:27N 36°51' E 001°12'612.9
2017-Sep-06 04:00N 36°50' E 001°05'713.1
2017-Sep-06 03:30N 36°48' E 000°57'713.4
2017-Sep-06 03:00N 36°47' E 000°49'713.4
2017-Sep-06 02:30N 36°45' E 000°41'713.3
2017-Sep-06 02:00N 36°44' E 000°33'713.2
2017-Sep-06 01:27N 36°42' E 000°24'612.9
2017-Sep-06 01:00N 36°41' E 000°17'612.9
2017-Sep-06 00:30N 36°39' E 000°09'613.0
2017-Sep-06 00:00N 36°38' E 000°01'813.1
2017-Sep-05 23:23N 36°36' W 000°09'513.1
2017-Sep-05 23:00N 36°35' W 000°14'713.2
2017-Sep-05 22:30N 36°33' W 000°23'713.1
2017-Sep-05 22:00N 36°32' W 000°31'612.9
2017-Sep-05 21:30N 36°30' W 000°38'612.9
2017-Sep-05 21:00N 36°29' W 000°46'812.7
2017-Sep-05 20:21N 36°27' W 000°56'512.8
2017-Sep-05 19:58N 36°26' W 001°02'612.8
2017-Sep-05 19:28N 36°24' W 001°10'713.1
2017-Sep-05 18:57N 36°22' W 001°18'5813.1
2017-Sep-05 14:32N 36°11' W 002°28'213.0
2017-Sep-05 14:22N 36°11' W 002°31'18313.1
2017-Sep-05 00:20N 35°54' W 006°17'513.1
2017-Sep-04 23:57N 35°55' W 006°22'613.0
2017-Sep-04 23:30N 35°57' W 006°30'713.1
2017-Sep-04 23:00N 35°58' W 006°37'613.0
2017-Sep-04 22:30N 35°60' W 006°45'713.0
2017-Sep-04 21:58N 36°02' W 006°53'1213.1
2017-Sep-04 21:05N 36°04' W 007°07'112.9
2017-Sep-04 20:59N 36°05' W 007°09'713.0
2017-Sep-04 20:26N 36°06' W 007°18'512.7
2017-Sep-04 20:00N 36°07' W 007°24'712.7
2017-Sep-04 19:26N 36°09' W 007°33'512.9
2017-Sep-04 19:00N 36°11' W 007°39'612.7
2017-Sep-04 18:30N 36°12' W 007°47'712.9
2017-Sep-04 18:00N 36°14' W 007°55'5513.0
2017-Sep-04 13:48N 36°26' W 009°01'1213.4
2017-Sep-04 12:55N 36°29' W 009°15'10012.6
2017-Sep-04 05:00N 38°02' W 010°00'612.7
2017-Sep-04 04:30N 38°08' W 010°02'713.0
2017-Sep-04 03:58N 38°15' W 010°04'613.4
2017-Sep-04 03:30N 38°21' W 010°06'813.1
2017-Sep-04 02:53N 38°29' W 010°08'613.2
2017-Sep-04 02:26N 38°34' W 010°10'613.3
2017-Sep-04 02:00N 38°40' W 010°12'612.6
2017-Sep-04 01:30N 38°46' W 010°12'713.1
2017-Sep-04 01:00N 38°53' W 010°12'613.0
2017-Sep-04 00:30N 38°59' W 010°12'612.7
2017-Sep-04 00:00N 39°06' W 010°12'612.7
2017-Sep-03 23:30N 39°12' W 010°12'713.1
2017-Sep-03 23:00N 39°19' W 010°12'713.0
2017-Sep-03 22:27N 39°26' W 010°12'612.8
2017-Sep-03 22:00N 39°32' W 010°12'712.9
2017-Sep-03 21:29N 39°38' W 010°12'812.9
2017-Sep-03 20:54N 39°46' W 010°12'1113.2
2017-Sep-03 20:05N 39°57' W 010°12'313.0
2017-Sep-03 19:52N 39°59' W 010°12'513.2
2017-Sep-03 19:30N 40°04' W 010°12'713.4
2017-Sep-03 19:00N 40°11' W 010°12'713.2
2017-Sep-03 18:30N 40°17' W 010°12'713.2
2017-Sep-03 18:00N 40°24' W 010°12'713.0
2017-Sep-03 17:28N 40°31' W 010°12'613.1
2017-Sep-03 17:00N 40°37' W 010°12'713.2
2017-Sep-03 16:30N 40°44' W 010°12'713.3
2017-Sep-03 15:58N 40°51' W 010°12'613.2
2017-Sep-03 15:30N 40°57' W 010°12'713.2
2017-Sep-03 14:58N 41°04' W 010°12'1313.2
2017-Sep-03 14:00N 41°17' W 010°12'16212.8
2017-Sep-03 01:18N 43°57' W 009°43'413.3
2017-Sep-03 01:00N 44°01' W 009°40'1213.3
2017-Sep-03 00:04N 44°12' W 009°32'113.4
2017-Sep-03 00:00N 44°13' W 009°31'1213.2
2017-Sep-02 23:03N 44°24' W 009°23'113.4
2017-Sep-02 23:00N 44°24' W 009°22'  
Track history (hours):
 
Tides and Currents Weather Stations Pressure Air Temp Water Temp Dewpoint Dewpoint Depression Visibility Wind Speed Wind Dir Waves Ship Positions

Navig8 Honor

Last reported at 2017-Sep-12 07:34 UTC. Time now 2017-Dec-13 05:30 UTC.
Position N 30°47' E 032°19'.
Warning: this ship's position is months out of date.

Length 228 m; draft 12.2 m.

Type: Ship. MMSI: 538003756.

Date/timePositionNaut miles runAvg speedWind from/ knotsBaromVisibWave heightAir tempDewpointWater temp
2017-Sep-12 07:34N 30°47' E 032°19'2 8.6
2017-Sep-12 07:21N 30°49' E 032°19'7 8.3
2017-Sep-12 06:31N 30°56' E 032°19'0 8.1
2017-Sep-12 06:30N 30°56' E 032°19'5 8.5
2017-Sep-12 05:57N 31°01' E 032°19'5 9.5
2017-Sep-12 05:23N 31°06' E 032°19'6 9.7
2017-Sep-12 04:46N 31°12' E 032°20'2 6.0
2017-Sep-12 04:29N 31°14' E 032°21'6 9.5
2017-Sep-12 03:50N 31°20' E 032°23'2 5.6
2017-Sep-12 03:26N 31°22' E 032°23'2 4.5
2017-Sep-12 03:00N 31°24' E 032°22'2 2.0
2017-Sep-12 02:04N 31°23' E 032°20'0 0.4
2017-Sep-12 01:57N 31°22' E 032°20'0 0.0
2017-Sep-12 01:26N 31°22' E 032°20'0 0.1
2017-Sep-12 00:56N 31°22' E 032°20'0 0.0
2017-Sep-12 00:29N 31°22' E 032°20'0 0.0
2017-Sep-11 23:59N 31°22' E 032°20'0 0.0
2017-Sep-11 20:35N 31°22' E 032°20'0 0.0
2017-Sep-11 20:20N 31°22' E 032°20'0 0.0
2017-Sep-11 19:02N 31°22' E 032°20'0 0.0
2017-Sep-11 18:59N 31°22' E 032°20'0 0.0
2017-Sep-11 18:29N 31°22' E 032°20'0 0.0
2017-Sep-11 17:53N 31°22' E 032°20'0 0.0
2017-Sep-11 17:26N 31°22' E 032°20'0 0.0
2017-Sep-11 16:53N 31°22' E 032°20'0 0.0
2017-Sep-11 16:08N 31°22' E 032°20'0 0.0
2017-Sep-11 15:59N 31°22' E 032°20'0 0.0
2017-Sep-11 15:29N 31°22' E 032°20'0 0.0
2017-Sep-11 14:59N 31°22' E 032°20'0 0.0
2017-Sep-11 14:14N 31°22' E 032°20'0 0.0
2017-Sep-11 13:59N 31°22' E 032°20'0 0.0
2017-Sep-11 13:26N 31°22' E 032°20'0 0.0
2017-Sep-11 12:10N 31°22' E 032°20'0 0.0
2017-Sep-11 11:53N 31°22' E 032°20'0 0.0
2017-Sep-11 11:23N 31°22' E 032°20'0 0.0
2017-Sep-11 11:00N 31°22' E 032°20'0 0.0
2017-Sep-11 10:24N 31°22' E 032°20'0 0.0
2017-Sep-11 10:00N 31°22' E 032°20'0 0.1
2017-Sep-11 09:30N 31°22' E 032°20'0 0.2
2017-Sep-11 08:49N 31°23' E 032°20'0 0.1
2017-Sep-11 08:25N 31°23' E 032°20'0 0.7
2017-Sep-11 08:00N 31°23' E 032°20'1 1.3
2017-Sep-11 07:23N 31°24' E 032°20'5 6.8
2017-Sep-11 06:40N 31°28' E 032°17'1 7.6
2017-Sep-11 06:30N 31°29' E 032°16'611.7
2017-Sep-11 06:00N 31°33' E 032°11'612.9
2017-Sep-11 05:30N 31°38' E 032°06'812.8
2017-Sep-11 04:54N 31°43' E 031°59'512.6
2017-Sep-11 04:30N 31°46' E 031°54'613.0
2017-Sep-11 04:00N 31°48' E 031°47'713.1
2017-Sep-11 03:30N 31°51' E 031°40'1112.9
2017-Sep-11 02:40N 31°54' E 031°28'3712.9
2017-Sep-10 23:47N 32°09' E 030°48'413.0
2017-Sep-10 23:30N 32°10' E 030°44'1213.0
2017-Sep-10 22:36N 32°14' E 030°31'113.0
2017-Sep-10 22:30N 32°14' E 030°29'1813.3
2017-Sep-10 21:11N 32°20' E 030°10'4313.0
2017-Sep-10 17:53N 32°33' E 029°21'612.7
2017-Sep-10 17:26N 32°34' E 029°14'6012.9
2017-Sep-10 12:48N 32°52' E 028°07'413.0
2017-Sep-10 12:30N 32°53' E 028°02'1713.1
2017-Sep-10 11:13N 32°58' E 027°43'66413.0
2017-Sep-08 08:11N 36°17' E 014°54'213.2
2017-Sep-08 08:00N 36°18' E 014°51'713.1
2017-Sep-08 07:30N 36°20' E 014°43'612.9
2017-Sep-08 07:00N 36°22' E 014°36'613.0
2017-Sep-08 06:31N 36°24' E 014°28'713.0
2017-Sep-08 06:00N 36°26' E 014°20'613.0
2017-Sep-08 05:30N 36°27' E 014°13'612.9
2017-Sep-08 05:00N 36°29' E 014°05'1212.9
2017-Sep-08 04:05N 36°33' E 013°51'113.1
2017-Sep-08 04:00N 36°33' E 013°50'1913.1
2017-Sep-08 02:34N 36°39' E 013°28'113.5
2017-Sep-08 02:30N 36°39' E 013°26'713.1
2017-Sep-08 01:58N 36°41' E 013°18'42512.8
2017-Sep-06 16:45N 37°18' E 004°28'6212.9
2017-Sep-06 11:59N 37°13' E 003°11'613.2
2017-Sep-06 11:30N 37°12' E 003°03'713.2
2017-Sep-06 11:00N 37°11' E 002°55'713.3
2017-Sep-06 10:30N 37°09' E 002°46'813.3
2017-Sep-06 09:53N 37°07' E 002°37'713.3
2017-Sep-06 09:22N 37°06' E 002°28'513.2
2017-Sep-06 09:00N 37°05' E 002°22'613.0
2017-Sep-06 08:30N 37°03' E 002°15'612.9
2017-Sep-06 08:00N 37°02' E 002°07'612.8
2017-Sep-06 07:30N 37°00' E 001°59'712.8
2017-Sep-06 06:56N 36°58' E 001°50'612.5
2017-Sep-06 06:27N 36°57' E 001°43'612.4
2017-Sep-06 06:00N 36°56' E 001°36'1612.5
2017-Sep-06 04:44N 36°52' E 001°17'412.7
2017-Sep-06 04:27N 36°51' E 001°12'612.9
2017-Sep-06 04:00N 36°50' E 001°05'713.1
2017-Sep-06 03:30N 36°48' E 000°57'713.4
2017-Sep-06 03:00N 36°47' E 000°49'713.4
2017-Sep-06 02:30N 36°45' E 000°41'713.3
2017-Sep-06 02:00N 36°44' E 000°33'713.2
2017-Sep-06 01:27N 36°42' E 000°24'612.9
2017-Sep-06 01:00N 36°41' E 000°17'612.9
2017-Sep-06 00:30N 36°39' E 000°09'613.0
2017-Sep-06 00:00N 36°38' E 000°01'813.1
2017-Sep-05 23:23N 36°36' W 000°09'513.1
2017-Sep-05 23:00N 36°35' W 000°14'713.2
2017-Sep-05 22:30N 36°33' W 000°23'713.1
2017-Sep-05 22:00N 36°32' W 000°31'612.9
2017-Sep-05 21:30N 36°30' W 000°38'612.9
2017-Sep-05 21:00N 36°29' W 000°46'812.7
2017-Sep-05 20:21N 36°27' W 000°56'512.8
2017-Sep-05 19:58N 36°26' W 001°02'612.8
2017-Sep-05 19:28N 36°24' W 001°10'713.1
2017-Sep-05 18:57N 36°22' W 001°18'5813.1
2017-Sep-05 14:32N 36°11' W 002°28'213.0
2017-Sep-05 14:22N 36°11' W 002°31'18313.1
2017-Sep-05 00:20N 35°54' W 006°17'513.1
2017-Sep-04 23:57N 35°55' W 006°22'613.0
2017-Sep-04 23:30N 35°57' W 006°30'713.1
2017-Sep-04 23:00N 35°58' W 006°37'613.0
2017-Sep-04 22:30N 35°60' W 006°45'713.0
2017-Sep-04 21:58N 36°02' W 006°53'1213.1
2017-Sep-04 21:05N 36°04' W 007°07'112.9
2017-Sep-04 20:59N 36°05' W 007°09'713.0
2017-Sep-04 20:26N 36°06' W 007°18'512.7
2017-Sep-04 20:00N 36°07' W 007°24'712.7
2017-Sep-04 19:26N 36°09' W 007°33'512.9
2017-Sep-04 19:00N 36°11' W 007°39'612.7
2017-Sep-04 18:30N 36°12' W 007°47'712.9
2017-Sep-04 18:00N 36°14' W 007°55'5513.0
2017-Sep-04 13:48N 36°26' W 009°01'1213.4
2017-Sep-04 12:55N 36°29' W 009°15'10012.6
2017-Sep-04 05:00N 38°02' W 010°00'612.7
2017-Sep-04 04:30N 38°08' W 010°02'713.0
2017-Sep-04 03:58N 38°15' W 010°04'613.4
2017-Sep-04 03:30N 38°21' W 010°06'813.1
2017-Sep-04 02:53N 38°29' W 010°08'613.2
2017-Sep-04 02:26N 38°34' W 010°10'613.3
2017-Sep-04 02:00N 38°40' W 010°12'612.6
2017-Sep-04 01:30N 38°46' W 010°12'713.1
2017-Sep-04 01:00N 38°53' W 010°12'613.0
2017-Sep-04 00:30N 38°59' W 010°12'612.7
2017-Sep-04 00:00N 39°06' W 010°12'612.7
2017-Sep-03 23:30N 39°12' W 010°12'713.1
2017-Sep-03 23:00N 39°19' W 010°12'713.0
2017-Sep-03 22:27N 39°26' W 010°12'612.8
2017-Sep-03 22:00N 39°32' W 010°12'712.9
2017-Sep-03 21:29N 39°38' W 010°12'812.9
2017-Sep-03 20:54N 39°46' W 010°12'1113.2
2017-Sep-03 20:05N 39°57' W 010°12'313.0
2017-Sep-03 19:52N 39°59' W 010°12'513.2
2017-Sep-03 19:30N 40°04' W 010°12'713.4
2017-Sep-03 19:00N 40°11' W 010°12'713.2
2017-Sep-03 18:30N 40°17' W 010°12'713.2
2017-Sep-03 18:00N 40°24' W 010°12'713.0
2017-Sep-03 17:28N 40°31' W 010°12'613.1
2017-Sep-03 17:00N 40°37' W 010°12'713.2
2017-Sep-03 16:30N 40°44' W 010°12'713.3
2017-Sep-03 15:58N 40°51' W 010°12'613.2
2017-Sep-03 15:30N 40°57' W 010°12'713.2
2017-Sep-03 14:58N 41°04' W 010°12'1313.2
2017-Sep-03 14:00N 41°17' W 010°12'16212.8
2017-Sep-03 01:18N 43°57' W 009°43'413.3
2017-Sep-03 01:00N 44°01' W 009°40'1213.3
2017-Sep-03 00:04N 44°12' W 009°32'113.4
2017-Sep-03 00:00N 44°13' W 009°31'1213.2
2017-Sep-02 23:03N 44°24' W 009°23'113.4
2017-Sep-02 23:00N 44°24' W 009°22'  

Dump ship's entire track history